Slatina, Romania
Current Conditions -  °F | °C
As of 8:30 AM on Sunday 23 Nov 2014 (Local Time) from LRCV Reporting Station
Haze Haze  
Wind Chill: 39°   Ceiling: 2700
Heat Index: 39°   Visibility: 2.8mi
Dew Point: 37°   Wind: 2mph
Humidity: 93%   Direction: 70°ENE
Pressure: 30.36"   Gusts: NA
Location:  44.44°N, 24.36°E
Report Text: LRCV 230530Z 07002KT 4500 BR SCT015 OVC027 04/03 Q1028
Loading
Personal Weather Stations






























Interactive Weather Map New forecast layout! Learn more

10-Day Weather Forecast

Advertisements
Track Severe Weather on mobile